Time;durP1;ratioP1;P1;durP2;ratioP2;P2;SDS_P1;SDS_P2;PMS_P1;PMS_P2;Temp;Humidity;BMP_temperature;BMP_pressure;BME280_temperature;BME280_humidity;BME280_pressure;Samples;Min_cycle;Max_cycle;Signal;HPM_P1;HPM_P2
2023/01/16 00:01:13;;;;;;;0.50;0.50;;;;;;;9.59;60.25;99547.22;4910447;28;97240;-51
2023/01/16 00:03:38;;;;;;;1.10;1.00;;;;;;;9.57;60.15;99549.75;4907615;28;97980;-51
2023/01/16 00:06:04;;;;;;;1.40;0.70;;;;;;;9.55;60.13;99541.28;4908606;28;96978;-51
2023/01/16 00:08:30;;;;;;;1.87;0.90;;;;;;;9.50;60.14;99538.59;4908498;28;97010;-50
2023/01/16 00:10:55;;;;;;;2.60;0.87;;;;;;;9.46;60.25;99532.59;4908855;28;96859;-50
2023/01/16 00:13:20;;;;;;;0.90;0.60;;;;;;;9.50;60.29;99533.09;4910900;28;97380;-50
2023/01/16 00:15:49;;;;;;;1.40;0.70;;;;;;;9.52;60.21;99530.59;4912098;28;96922;-51
2023/01/16 00:18:14;;;;;;;1.90;0.70;;;;;;;9.48;60.18;99527.38;4907947;28;97234;-50
2023/01/16 00:20:40;;;;;;;1.07;0.50;;;;;;;9.49;60.30;99526.09;4913613;28;96714;-50
2023/01/16 00:23:05;;;;;;;2.10;0.60;;;;;;;9.48;60.19;99525.34;4909056;28;96977;-50
2023/01/16 00:25:30;;;;;;;2.00;0.70;;;;;;;9.47;60.25;99517.63;4907949;28;97317;-50
2023/01/16 00:27:56;;;;;;;1.60;0.40;;;;;;;9.46;60.19;99519.63;4905758;28;96839;-50
2023/01/16 00:30:21;;;;;;;1.73;0.87;;;;;;;9.43;60.12;99511.69;4913168;28;97446;-50
2023/01/16 00:32:47;;;;;;;0.70;0.70;;;;;;;9.42;60.15;99510.94;4906425;28;97492;-51
2023/01/16 00:35:12;;;;;;;0.80;0.80;;;;;;;9.40;60.19;99501.72;4914724;28;97022;-50
2023/01/16 00:37:38;;;;;;;1.10;0.60;;;;;;;9.39;60.16;99503.00;4915251;28;96933;-51
2023/01/16 00:40:03;;;;;;;1.20;0.60;;;;;;;9.37;60.17;99502.75;4917600;28;97671;-50
2023/01/16 00:42:29;;;;;;;1.80;1.00;;;;;;;9.36;60.17;99493.78;4919516;28;97677;-50
2023/01/16 00:44:54;;;;;;;1.03;0.60;;;;;;;9.35;60.19;99489.53;4909615;28;96974;-51
2023/01/16 00:47:20;;;;;;;1.63;0.90;;;;;;;9.32;60.10;99496.06;4908908;28;97224;-49
2023/01/16 00:49:45;;;;;;;3.27;0.73;;;;;;;9.30;60.14;99497.81;4912909;28;97121;-50
2023/01/16 00:52:10;;;;;;;0.60;0.60;;;;;;;9.30;60.24;99486.84;4909518;28;97099;-51
2023/01/16 00:54:36;;;;;;;1.27;0.60;;;;;;;9.35;60.20;99486.06;4906249;28;97152;-50
2023/01/16 00:57:01;;;;;;;1.97;0.70;;;;;;;9.38;60.14;99493.25;4906096;28;96996;-51
2023/01/16 00:59:26;;;;;;;0.60;0.40;;;;;;;9.36;60.01;99485.53;4913756;28;97160;-50
2023/01/16 01:01:52;;;;;;;2.13;0.60;;;;;;;9.38;60.03;99485.03;4906698;28;98610;-50
2023/01/16 01:04:17;;;;;;;1.30;0.60;;;;;;;9.38;60.03;99476.78;4908530;28;98342;-53
2023/01/16 01:06:42;;;;;;;4.97;0.60;;;;;;;9.43;60.12;99484.25;4916138;28;98238;-49
2023/01/16 01:09:08;;;;;;;2.87;0.57;;;;;;;9.40;59.85;99482.50;4913232;28;97184;-50
2023/01/16 01:11:33;;;;;;;1.90;0.60;;;;;;;9.36;60.05;99479.31;4906805;28;98825;-51
2023/01/16 01:13:58;;;;;;;2.03;0.70;;;;;;;9.36;59.98;99474.56;4911511;28;97159;-50
2023/01/16 01:16:24;;;;;;;0.80;0.40;;;;;;;9.34;59.93;99471.59;4907713;28;97110;-50
2023/01/16 01:18:50;;;;;;;1.80;0.50;;;;;;;9.34;59.94;99466.09;4908081;28;97259;-51
2023/01/16 01:21:15;;;;;;;1.67;0.60;;;;;;;9.36;59.78;99469.06;4914299;28;96903;-50
2023/01/16 01:23:40;;;;;;;0.60;0.50;;;;;;;9.37;59.86;99472.56;4909047;28;96873;-50
2023/01/16 01:26:14;;;;;;;2.20;0.70;;;;;;;9.40;59.76;99468.78;4911993;28;97144;-51
2023/01/16 01:28:40;;;;;;;2.40;0.67;;;;;;;9.38;59.91;99466.56;4907075;28;96790;-50
2023/01/16 01:31:08;;;;;;;0.80;0.50;;;;;;;9.41;59.79;99464.81;4908470;28;97397;-49
2023/01/16 01:33:34;;;;;;;1.93;0.53;;;;;;;9.37;59.76;99456.84;4906760;28;97305;-48
2023/01/16 01:35:59;;;;;;;2.40;0.40;;;;;;;9.41;59.85;99456.56;4915403;28;97166;-51
2023/01/16 01:38:25;;;;;;;3.03;0.80;;;;;;;9.40;59.89;99444.09;4911816;28;96931;-50
2023/01/16 01:40:50;;;;;;;1.03;0.83;;;;;;;9.40;59.89;99446.84;4908877;28;98714;-50
2023/01/16 01:43:16;;;;;;;1.17;0.50;;;;;;;9.36;59.68;99435.41;4916186;28;97240;-49
2023/01/16 01:45:50;;;;;;;1.00;0.50;;;;;;;9.35;59.61;99434.66;4927338;28;96950;-50
2023/01/16 01:48:20;;;;;;;1.20;0.50;;;;;;;9.35;59.46;99434.66;4910634;28;97413;-50
2023/01/16 01:51:07;;;;;;;3.20;0.60;;;;;;;9.29;59.31;99425.72;4906284;28;97237;-50
2023/01/16 01:53:44;;;;;;;1.60;0.60;;;;;;;9.29;59.60;99428.47;4908949;28;98904;-51
2023/01/16 01:56:24;;;;;;;1.07;0.57;;;;;;;9.24;59.58;99425.78;4910392;28;97234;-50
2023/01/16 01:58:55;;;;;;;0.50;0.40;;;;;;;9.23;59.62;99421.53;4902156;28;98548;-50
2023/01/16 02:01:20;;;;;;;0.90;0.50;;;;;;;9.25;59.75;99419.78;4905540;28;97089;-50
2023/01/16 02:03:51;;;;;;;2.80;0.60;;;;;;;9.23;59.61;99416.81;4897585;28;97437;-50
2023/01/16 02:06:25;;;;;;;1.17;0.50;;;;;;;9.22;59.45;99418.03;4914579;28;96942;-50
2023/01/16 02:08:53;;;;;;;2.40;0.53;;;;;;;9.20;59.66;99411.59;4910140;28;96921;-50
2023/01/16 02:11:26;;;;;;;1.67;0.87;;;;;;;9.18;59.60;99412.09;4908674;28;97279;-51
2023/01/16 02:14:00;;;;;;;1.00;0.50;;;;;;;9.16;59.56;99406.38;4912664;28;97018;-50
2023/01/16 02:19:36;;;;;;;2.60;0.60;;;;;;;9.15;59.58;99398.69;4912034;28;97658;-49
2023/01/16 02:22:39;;;;;;;1.53;0.50;;;;;;;9.12;59.35;99392.22;4908572;28;97238;-50
2023/01/16 02:25:26;;;;;;;0.50;0.40;;;;;;;9.12;59.85;99386.72;4907369;28;96976;-50
2023/01/16 02:28:13;;;;;;;2.40;0.60;;;;;;;9.11;59.40;99370.78;4916668;28;97033;-48
2023/01/16 02:31:09;;;;;;;1.30;0.40;;;;;;;9.12;59.33;99366.78;4921887;28;100292;-50
2023/01/16 02:33:49;;;;;;;3.80;0.40;;;;;;;9.11;59.31;99359.81;4910717;28;96724;-50
2023/01/16 02:36:41;;;;;;;3.33;0.87;;;;;;;9.08;59.36;99358.84;4913021;28;96930;-50
2023/01/16 02:39:15;;;;;;;0.90;0.60;;;;;;;9.11;59.75;99354.31;4908688;28;97124;-50
2023/01/16 02:41:49;;;;;;;1.53;0.57;;;;;;;9.11;59.82;99351.59;4908636;28;97331;-50
2023/01/16 02:44:33;;;;;;;1.00;0.40;;;;;;;9.13;59.83;99341.56;4910893;28;97096;-50
2023/01/16 02:47:14;;;;;;;0.50;0.50;;;;;;;9.15;59.69;99344.56;4906598;28;97242;-50
2023/01/16 02:49:54;;;;;;;2.70;0.47;;;;;;;9.14;59.66;99339.56;4913588;28;97281;-50
2023/01/16 02:52:46;;;;;;;0.90;0.60;;;;;;;9.16;59.68;99335.06;4913347;28;97212;-50
2023/01/16 02:55:23;;;;;;;1.17;0.43;;;;;;;9.14;59.66;99331.34;4907682;28;98086;-50
2023/01/16 02:57:55;;;;;;;0.80;0.50;;;;;;;9.15;59.88;99324.59;4908134;28;96917;-50
2023/01/16 03:00:21;;;;;;;4.63;0.60;;;;;;;9.13;59.63;99321.63;4910399;28;96644;-50
2023/01/16 03:02:47;;;;;;;0.60;0.40;;;;;;;9.06;59.71;99320.91;4907967;28;97722;-50
2023/01/16 03:05:12;;;;;;;0.93;0.53;;;;;;;8.99;59.64;99318.78;4911152;28;97163;-49
2023/01/16 03:07:50;;;;;;;1.57;0.40;;;;;;;8.98;59.65;99305.56;4913596;28;96966;-50
2023/01/16 03:10:28;;;;;;;1.23;1.03;;;;;;;8.90;59.80;99310.13;4913528;28;96648;-50
2023/01/16 03:13:07;;;;;;;0.77;0.60;;;;;;;8.81;59.68;99302.97;4915793;28;98710;-49
2023/01/16 03:15:51;;;;;;;0.53;0.50;;;;;;;8.78;59.54;99297.78;4910873;28;96884;-50
2023/01/16 03:18:54;;;;;;;1.07;0.73;;;;;;;8.71;59.76;99296.34;4906285;28;96941;-51
2023/01/16 03:21:38;;;;;;;1.10;0.50;;;;;;;8.70;60.03;99291.34;4911731;28;97116;-50
2023/01/16 03:24:13;;;;;;;0.70;0.40;;;;;;;8.72;60.13;99294.31;4908796;28;97854;-50
2023/01/16 03:26:46;;;;;;;1.00;0.53;;;;;;;8.74;60.17;99300.78;4908314;28;97252;-51
2023/01/16 03:29:44;;;;;;;0.90;0.43;;;;;;;8.77;60.29;99286.06;4913792;28;97079;-51
2023/01/16 03:32:34;;;;;;;0.80;0.50;;;;;;;8.79;60.25;99278.06;4909032;28;96838;-50
2023/01/16 03:35:16;;;;;;;0.50;0.50;;;;;;;8.80;60.10;99279.53;4907934;28;97129;-49
2023/01/16 03:37:49;;;;;;;0.50;0.40;;;;;;;8.79;60.23;99280.06;4913349;28;97045;-49
2023/01/16 03:40:22;;;;;;;0.77;0.60;;;;;;;8.78;60.20;99284.06;4907798;28;96919;-50
2023/01/16 03:43:08;;;;;;;0.50;0.40;;;;;;;8.79;60.24;99288.28;4911208;28;97011;-51
2023/01/16 03:45:55;;;;;;;0.80;0.67;;;;;;;8.80;60.13;99270.59;4910457;28;97010;-50
2023/01/16 03:48:48;;;;;;;3.23;0.60;;;;;;;8.80;60.10;99252.13;4907809;28;99190;-51
2023/01/16 03:51:36;;;;;;;1.47;0.90;;;;;;;8.77;60.41;99239.47;4915542;28;97049;-50
2023/01/16 03:54:27;;;;;;;0.50;0.40;;;;;;;8.78;60.34;99238.19;4907757;28;97151;-49
2023/01/16 03:57:03;;;;;;;1.80;0.50;;;;;;;8.79;60.26;99233.44;4909842;28;96742;-49
2023/01/16 03:59:29;;;;;;;1.43;0.60;;;;;;;8.76;60.42;99229.72;4908962;28;97379;-50
2023/01/16 04:01:58;;;;;;;1.53;0.63;;;;;;;8.73;60.18;99227.28;4908588;28;97034;-49
2023/01/16 04:04:45;;;;;;;1.60;0.60;;;;;;;8.69;60.34;99219.34;4910632;28;97199;-51
2023/01/16 04:07:35;;;;;;;1.07;0.50;;;;;;;8.63;60.61;99207.69;4912909;28;96929;-49
2023/01/16 04:10:14;;;;;;;1.27;0.50;;;;;;;8.61;60.54;99209.44;4905714;28;98138;-51
2023/01/16 04:12:46;;;;;;;0.90;0.60;;;;;;;8.59;60.57;99204.50;4912704;28;96785;-50
2023/01/16 04:15:12;;;;;;;1.73;0.50;;;;;;;8.58;60.73;99197.53;4911570;28;96941;-49
2023/01/16 04:17:39;;;;;;;0.53;0.40;;;;;;;8.58;60.72;99199.53;4910932;28;97139;-50
2023/01/16 04:20:06;;;;;;;5.90;0.60;;;;;;;8.59;60.49;99206.47;4916498;28;98050;-50
2023/01/16 04:22:32;;;;;;;1.53;0.50;;;;;;;8.56;60.43;99202.75;4917934;28;96996;-50
2023/01/16 04:25:01;;;;;;;1.80;0.50;;;;;;;8.55;60.70;99193.06;4909720;28;96742;-50
2023/01/16 04:27:27;;;;;;;0.70;0.60;;;;;;;8.53;60.46;99186.63;4909016;28;97585;-53
2023/01/16 04:29:53;;;;;;;0.70;0.40;;;;;;;8.48;60.42;99188.16;4908300;28;97193;-50
2023/01/16 04:32:18;;;;;;;1.27;0.40;;;;;;;8.43;60.54;99177.97;4907693;28;96739;-50
2023/01/16 04:34:44;;;;;;;2.07;0.50;;;;;;;8.29;60.45;99168.91;4912014;28;97004;-50
2023/01/16 04:37:13;;;;;;;1.83;0.57;;;;;;;8.23;60.58;99161.97;4909518;28;97296;-50
2023/01/16 04:39:40;;;;;;;0.60;0.40;;;;;;;8.18;60.66;99179.19;4906794;28;98443;-50
2023/01/16 04:42:06;;;;;;;2.40;0.50;;;;;;;8.14;60.77;99165.78;4904282;28;96902;-54
2023/01/16 04:44:31;;;;;;;1.10;0.40;;;;;;;8.13;60.84;99164.28;4907448;28;97402;-50
2023/01/16 04:46:56;;;;;;;0.60;0.33;;;;;;;8.13;60.93;99169.75;4891557;28;97910;-49
2023/01/16 04:49:22;;;;;;;0.50;0.40;;;;;;;8.14;60.88;99159.56;4903324;28;96991;-50
2023/01/16 04:51:47;;;;;;;0.70;0.50;;;;;;;8.18;60.79;99157.28;4908417;28;97215;-50
2023/01/16 04:54:16;;;;;;;1.47;0.50;;;;;;;8.21;61.01;99156.28;4907354;28;97279;-49
2023/01/16 04:56:41;;;;;;;0.57;0.40;;;;;;;8.23;60.87;99157.22;4904912;28;97901;-50
2023/01/16 04:59:09;;;;;;;0.50;0.30;;;;;;;8.23;60.95;99151.75;4901659;28;97178;-50
2023/01/16 05:01:36;;;;;;;0.67;0.40;;;;;;;8.23;60.60;99157.22;4902644;28;97100;-49
2023/01/16 05:04:02;;;;;;;0.90;0.40;;;;;;;8.25;60.84;99149.28;4907176;28;96616;-49
2023/01/16 05:06:27;;;;;;;1.13;0.57;;;;;;;8.26;60.76;99141.78;4911981;28;96795;-48
2023/01/16 05:08:52;;;;;;;0.80;0.50;;;;;;;8.24;60.87;99133.31;4904463;28;97159;-50
2023/01/16 05:11:18;;;;;;;0.60;0.50;;;;;;;8.23;60.94;99126.38;4912527;28;97514;-51
2023/01/16 05:13:43;;;;;;;0.87;0.60;;;;;;;8.18;60.66;99125.16;4914784;28;96689;-50
2023/01/16 05:16:09;;;;;;;2.40;0.73;;;;;;;8.17;60.70;99118.19;4908601;28;97238;-48
2023/01/16 05:18:34;;;;;;;1.50;0.70;;;;;;;8.14;60.95;99121.22;4911670;28;96670;-49
2023/01/16 05:21:00;;;;;;;0.90;0.77;;;;;;;8.09;60.43;99113.78;4910275;28;97507;-50
2023/01/16 05:23:25;;;;;;;1.17;0.73;;;;;;;8.04;61.03;99109.09;4914861;28;97090;-50
2023/01/16 05:25:51;;;;;;;5.33;0.60;;;;;;;7.98;60.54;99111.16;4909985;28;97270;-50
2023/01/16 05:28:16;;;;;;;0.97;0.60;;;;;;;7.92;60.61;99105.72;4912407;28;97027;-49
2023/01/16 05:30:42;;;;;;;1.57;0.60;;;;;;;7.88;60.81;99107.25;4911062;28;97309;-50
2023/01/16 05:33:07;;;;;;;1.07;0.50;;;;;;;7.81;61.11;99100.34;4907988;28;99182;-51
2023/01/16 05:35:33;;;;;;;0.70;0.40;;;;;;;7.78;61.02;99100.63;4912345;28;97270;-50
2023/01/16 05:37:58;;;;;;;1.03;0.40;;;;;;;7.73;61.07;99112.38;4912948;28;97197;-50
2023/01/16 05:40:23;;;;;;;1.63;0.60;;;;;;;7.68;61.20;99104.94;4911100;28;96901;-50
2023/01/16 05:42:49;;;;;;;1.90;0.43;;;;;;;7.65;61.12;99103.22;4913322;28;97200;-49
2023/01/16 05:45:14;;;;;;;0.60;0.50;;;;;;;7.60;60.95;99093.78;4909782;28;97115;-49
2023/01/16 05:47:40;;;;;;;2.77;0.40;;;;;;;7.56;61.07;99090.59;4910688;28;97052;-49
2023/01/16 05:50:06;;;;;;;0.70;0.40;;;;;;;7.54;61.10;99091.09;4919726;28;96961;-51
2023/01/16 05:52:31;;;;;;;0.90;0.63;;;;;;;7.51;61.11;99097.59;4915078;28;96824;-50
2023/01/16 05:54:57;;;;;;;0.60;0.43;;;;;;;7.48;61.48;99084.94;4908782;28;97261;-48
2023/01/16 05:57:23;;;;;;;1.13;0.50;;;;;;;7.51;61.55;99083.91;4910825;28;97487;-49
2023/01/16 05:59:51;;;;;;;0.60;0.40;;;;;;;7.54;61.56;99080.16;4914132;28;97251;-49
2023/01/16 06:02:17;;;;;;;2.63;0.33;;;;;;;7.58;61.54;99066.94;4909860;28;97317;-49
2023/01/16 06:04:43;;;;;;;4.73;0.67;;;;;;;7.63;61.54;99059.94;4911295;28;96903;-49
2023/01/16 06:07:08;;;;;;;1.13;0.60;;;;;;;7.70;61.13;99061.38;4911859;28;97204;-50
2023/01/16 06:09:33;;;;;;;0.50;0.47;;;;;;;7.73;61.20;99060.38;4909781;28;96760;-49
2023/01/16 06:11:59;;;;;;;0.50;0.40;;;;;;;7.76;61.40;99053.84;4917188;28;97192;-49
2023/01/16 06:14:24;;;;;;;1.07;0.60;;;;;;;7.74;61.43;99051.63;4912959;28;97307;-49
2023/01/16 06:16:49;;;;;;;0.87;0.50;;;;;;;7.72;60.99;99047.91;4912752;28;97474;-49
2023/01/16 06:19:15;;;;;;;0.50;0.47;;;;;;;7.72;61.28;99045.19;4915034;28;96959;-52
2023/01/16 06:21:40;;;;;;;1.73;0.57;;;;;;;7.68;61.09;99034.53;4908319;28;96706;-49
2023/01/16 06:24:06;;;;;;;0.60;0.40;;;;;;;7.65;61.14;99021.09;4908652;28;97317;-50
2023/01/16 06:26:31;;;;;;;0.70;0.50;;;;;;;7.65;61.23;99024.59;4911112;28;96767;-49
2023/01/16 06:28:57;;;;;;;0.60;0.43;;;;;;;7.62;61.16;99022.16;4911718;28;96974;-49
2023/01/16 06:31:23;;;;;;;1.03;0.40;;;;;;;7.63;61.27;99026.34;4909499;28;96797;-50
2023/01/16 06:33:48;;;;;;;1.10;0.73;;;;;;;7.61;61.34;99020.66;4909299;28;98095;-49
2023/01/16 06:36:13;;;;;;;0.50;0.43;;;;;;;7.55;61.34;99007.78;4914218;28;97342;-51
2023/01/16 06:38:39;;;;;;;0.97;0.40;;;;;;;7.51;61.47;99001.09;4910920;28;97184;-49
2023/01/16 06:41:04;;;;;;;0.70;0.40;;;;;;;7.45;61.15;99001.13;4911282;28;97148;-48
2023/01/16 06:43:30;;;;;;;0.90;0.30;;;;;;;7.39;61.27;98996.97;4911360;28;97297;-49
2023/01/16 06:45:55;;;;;;;1.27;0.60;;;;;;;7.33;61.55;98999.75;4910910;28;97139;-48
2023/01/16 06:48:21;;;;;;;0.63;0.60;;;;;;;7.31;61.47;99001.50;4912440;28;97202;-48
2023/01/16 06:50:47;;;;;;;2.40;0.57;;;;;;;7.33;61.61;99005.22;4912180;28;96799;-48
2023/01/16 06:53:13;;;;;;;0.50;0.40;;;;;;;7.34;61.62;98993.03;4911873;28;96983;-52
2023/01/16 06:55:40;;;;;;;0.77;0.40;;;;;;;7.36;61.62;98987.78;4911799;28;97754;-49
2023/01/16 06:58:05;;;;;;;0.60;0.60;;;;;;;7.33;61.48;98983.34;4914429;28;97006;-49
2023/01/16 07:00:31;;;;;;;1.30;0.50;;;;;;;7.29;61.70;98980.16;4910601;28;96695;-49
2023/01/16 07:02:56;;;;;;;0.53;0.50;;;;;;;7.23;61.43;98981.44;4908478;28;97182;-50
2023/01/16 07:05:24;;;;;;;0.70;0.70;;;;;;;7.21;61.65;98971.00;4914183;28;97198;-49
2023/01/16 07:07:50;;;;;;;0.83;0.40;;;;;;;7.18;61.68;98963.84;4913127;28;97476;-50
2023/01/16 07:10:16;;;;;;;0.70;0.70;;;;;;;7.18;61.59;98960.34;4909550;28;97169;-50
2023/01/16 07:12:41;;;;;;;0.50;0.50;;;;;;;7.15;61.80;98947.69;4915403;28;97379;-50
2023/01/16 07:23:33;;;;;;;1.00;0.70;;;;;;;7.08;61.58;98948.25;4909376;28;97108;-50
2023/01/16 07:26:01;;;;;;;0.60;0.40;;;;;;;7.08;62.05;98950.97;4910304;28;97172;-50
2023/01/16 07:28:27;;;;;;;0.70;0.40;;;;;;;7.11;62.03;98949.97;4913560;28;96672;-50
2023/01/16 07:30:54;;;;;;;1.67;0.50;;;;;;;7.14;61.80;98943.47;4912780;28;97110;-51
2023/01/16 07:33:20;;;;;;;1.73;0.50;;;;;;;7.17;61.60;98934.25;4910757;28;97803;-50
2023/01/16 07:35:45;;;;;;;1.10;0.40;;;;;;;7.18;61.61;98941.22;4914070;28;97187;-49
2023/01/16 07:38:11;;;;;;;0.90;0.60;;;;;;;7.18;61.76;98931.03;4909772;28;96686;-50
2023/01/16 07:40:36;;;;;;;1.10;0.57;;;;;;;7.20;61.99;98925.03;4910363;28;97064;-49
2023/01/16 07:43:01;;;;;;;1.77;0.60;;;;;;;7.23;61.97;98924.75;4910231;28;97678;-49
2023/01/16 07:45:27;;;;;;;0.40;0.40;;;;;;;7.25;61.59;98914.03;4911715;28;97151;-49
2023/01/16 07:47:52;;;;;;;1.63;0.50;;;;;;;7.26;61.91;98915.53;4908433;28;96770;-49
2023/01/16 07:50:17;;;;;;;0.60;0.60;;;;;;;7.28;61.72;98913.03;4913487;28;97005;-49
2023/01/16 07:52:44;;;;;;;0.60;0.47;;;;;;;7.31;61.67;98903.81;4909120;28;97157;-49
2023/01/16 07:55:09;;;;;;;1.00;0.70;;;;;;;7.33;61.84;98898.56;4907002;28;97193;-49
2023/01/16 07:57:36;;;;;;;0.50;0.40;;;;;;;7.33;61.53;98898.56;4909402;28;97181;-51
2023/01/16 08:00:03;;;;;;;0.80;0.60;;;;;;;7.32;61.92;98899.06;4914456;28;96992;-50
2023/01/16 08:02:29;;;;;;;0.50;0.40;;;;;;;7.30;61.91;98890.63;4909205;28;97302;-50
2023/01/16 08:04:54;;;;;;;0.90;0.40;;;;;;;7.27;61.69;98881.44;4909280;28;97270;-50
2023/01/16 08:07:19;;;;;;;0.50;0.40;;;;;;;7.25;61.81;98875.75;4920474;28;97613;-51
2023/01/16 08:09:45;;;;;;;0.70;0.50;;;;;;;7.20;61.84;98873.81;4907229;28;97226;-49
2023/01/16 08:12:10;;;;;;;0.80;0.40;;;;;;;7.20;61.76;98878.53;4915195;28;96770;-50
2023/01/16 08:14:36;;;;;;;0.77;0.47;;;;;;;7.20;62.09;98871.09;4912641;28;98586;-51
2023/01/16 08:17:01;;;;;;;0.50;0.40;;;;;;;7.20;62.09;98862.13;4907521;28;97173;-49
2023/01/16 08:19:26;;;;;;;0.50;0.50;;;;;;;7.26;61.92;98855.38;4913910;28;96888;-49
2023/01/16 08:21:52;;;;;;;0.43;0.30;;;;;;;7.27;62.11;98847.91;4911142;28;97472;-49
2023/01/16 08:24:18;;;;;;;0.57;0.40;;;;;;;7.29;62.08;98854.34;4905354;28;98368;-49
2023/01/16 08:26:43;;;;;;;1.57;0.40;;;;;;;7.31;61.94;98846.38;4908884;28;97063;-49
2023/01/16 08:29:10;;;;;;;0.50;0.40;;;;;;;7.33;62.17;98849.34;4909474;28;96734;-49
2023/01/16 08:31:35;;;;;;;1.07;0.63;;;;;;;7.38;61.99;98843.03;4908122;28;96930;-50
2023/01/16 08:34:00;;;;;;;0.90;0.60;;;;;;;7.41;62.28;98842.03;4909893;28;97652;-49
2023/01/16 08:36:26;;;;;;;1.53;0.50;;;;;;;7.45;62.11;98841.72;4911530;28;98612;-49
2023/01/16 08:38:51;;;;;;;1.83;0.43;;;;;;;7.49;62.25;98828.53;4908220;28;96863;-52
2023/01/16 08:52:39;;;;;;;0.60;0.50;;;;;;;7.56;62.45;98797.81;4911131;28;97644;-49
2023/01/16 08:55:06;;;;;;;0.60;0.50;;;;;;;7.60;62.39;98803.03;4908981;28;97250;-50
2023/01/16 08:57:31;;;;;;;0.60;0.50;;;;;;;7.64;62.35;98803.47;4917716;28;97094;-49
2023/01/16 08:59:57;;;;;;;2.17;0.70;;;;;;;7.73;62.45;98795.63;4914819;28;96950;-49
2023/01/16 09:02:25;;;;;;;0.60;0.50;;;;;;;7.78;62.13;98791.31;4909683;28;97293;-51
2023/01/16 09:04:50;;;;;;;1.90;0.40;;;;;;;7.85;62.53;98785.25;4912965;28;96899;-49
2023/01/16 09:07:16;;;;;;;1.93;0.50;;;;;;;7.93;62.29;98777.94;4913574;28;96707;-49
2023/01/16 09:09:42;;;;;;;1.80;0.47;;;;;;;7.98;62.18;98777.84;4910429;28;97009;-50
2023/01/16 09:14:54;;;;;;;0.60;0.60;;;;;;;8.14;62.29;98770.66;4910846;28;97257;-49
2023/01/16 09:17:21;;;;;;;2.57;0.60;;;;;;;8.20;62.14;98768.56;4915805;28;97227;-50
2023/01/16 09:19:46;;;;;;;0.73;0.50;;;;;;;8.24;62.08;98777.22;4915311;28;96938;-50
2023/01/16 09:22:11;;;;;;;0.63;0.53;;;;;;;8.28;62.15;98762.00;4913092;28;96743;-50
2023/01/16 09:24:38;;;;;;;0.70;0.60;;;;;;;8.35;62.17;98760.63;4909691;28;97036;-49
2023/01/16 09:27:04;;;;;;;0.77;0.40;;;;;;;8.42;62.15;98773.72;4912418;28;97015;-49
2023/01/16 09:29:30;;;;;;;2.03;0.50;;;;;;;8.47;61.90;98767.44;4912255;28;97155;-49
2023/01/16 09:31:55;;;;;;;0.50;0.50;;;;;;;8.52;62.07;98754.91;4907419;28;97808;-49
2023/01/16 09:34:20;;;;;;;1.43;0.60;;;;;;;8.57;61.81;98762.28;4909984;28;97225;-49
2023/01/16 09:36:46;;;;;;;1.00;0.60;;;;;;;8.59;61.94;98757.00;4910332;28;97072;-50
2023/01/16 09:39:11;;;;;;;0.90;0.40;;;;;;;8.62;61.67;98755.97;4911867;28;96771;-49
2023/01/16 09:44:34;;;;;;;0.90;0.47;;;;;;;8.68;61.82;98738.16;4913523;28;97005;-50
2023/01/16 09:47:01;;;;;;;0.60;0.53;;;;;;;8.72;61.56;98733.09;4909599;28;96738;-50
2023/01/16 09:49:35;;;;;;;0.60;0.50;;;;;;;8.79;61.52;98720.78;4914753;28;96869;-51
2023/01/16 10:00:35;;;;;;;0.50;0.40;;;;;;;8.83;61.74;98705.50;4913725;28;98149;-51
2023/01/16 10:03:00;;;;;;;1.10;0.63;;;;;;;8.79;61.52;98694.09;4910170;28;97290;-50
2023/01/16 10:05:37;;;;;;;3.60;0.60;;;;;;;8.83;61.40;98685.56;4912498;28;97100;-50
2023/01/16 10:08:17;;;;;;;2.97;0.50;;;;;;;8.83;61.39;98683.56;4908728;28;96957;-50
2023/01/16 10:10:43;;;;;;;4.00;0.60;;;;;;;8.82;61.39;98667.66;4909579;28;96692;-51
2023/01/16 10:13:19;;;;;;;2.30;0.57;;;;;;;8.77;61.34;98655.50;4915134;28;97197;-50
2023/01/16 10:16:12;;;;;;;0.60;0.40;;;;;;;8.74;61.23;98640.13;4912087;28;97194;-49
2023/01/16 10:18:56;;;;;;;1.60;0.73;;;;;;;8.75;61.68;98644.34;4910420;28;97116;-49
2023/01/16 10:21:51;;;;;;;1.50;0.50;;;;;;;8.77;61.67;98636.31;4914201;28;96968;-49
2023/01/16 10:24:50;;;;;;;2.97;0.60;;;;;;;8.81;61.08;98620.28;4911917;28;96722;-50
2023/01/16 10:27:28;;;;;;;1.50;0.60;;;;;;;8.85;61.47;98611.75;4909864;28;96726;-49
2023/01/16 10:30:01;;;;;;;2.00;0.60;;;;;;;8.88;61.53;98605.94;4910951;28;96798;-49
2023/01/16 10:32:32;;;;;;;0.93;0.40;;;;;;;8.97;61.37;98594.53;4908954;28;96947;-50
2023/01/16 10:35:13;;;;;;;0.50;0.40;;;;;;;9.03;61.24;98575.97;4911376;28;98639;-50
2023/01/16 10:37:42;;;;;;;0.50;0.40;;;;;;;9.07;61.48;98567.41;4916508;28;97349;-50
2023/01/16 10:40:16;;;;;;;0.60;0.47;;;;;;;9.14;60.89;98557.78;4910139;28;96573;-49
2023/01/16 10:51:06;;;;;;;0.90;0.57;;;;;;;9.35;60.86;98542.09;4912991;28;96709;-50
2023/01/16 10:53:34;;;;;;;0.53;0.40;;;;;;;9.41;61.01;98537.94;4906999;28;97410;-49
2023/01/16 10:56:00;;;;;;;0.60;0.40;;;;;;;9.44;60.87;98527.88;4910543;28;97893;-49
2023/01/16 10:58:37;;;;;;;1.90;0.70;;;;;;;9.44;60.39;98525.88;4916788;28;97234;-49
2023/01/16 11:01:13;;;;;;;1.63;0.57;;;;;;;9.42;60.23;98511.97;4909468;28;96798;-49
2023/01/16 11:03:41;;;;;;;1.00;0.40;;;;;;;9.44;60.38;98497.69;4909460;28;97069;-51
2023/01/16 11:06:24;;;;;;;2.20;0.70;;;;;;;9.49;59.52;98492.09;4911786;28;97659;-49
2023/01/16 11:08:52;;;;;;;0.60;0.50;;;;;;;9.55;60.62;98486.44;4913983;28;96926;-49
2023/01/16 11:19:42;;;;;;;1.43;0.50;;;;;;;9.70;60.05;98470.81;4917219;28;97128;-49
2023/01/16 11:22:24;;;;;;;0.60;0.50;;;;;;;9.74;59.62;98459.53;4911673;28;96824;-49
2023/01/16 11:24:55;;;;;;;0.73;0.43;;;;;;;9.79;60.13;98461.38;4907009;28;96929;-49
2023/01/16 11:27:24;;;;;;;1.13;0.50;;;;;;;9.84;60.13;98455.00;4910183;28;97565;-49
2023/01/16 11:29:53;;;;;;;0.77;0.50;;;;;;;9.89;59.77;98437.63;4909741;28;98033;-49
2023/01/16 11:32:24;;;;;;;2.63;0.40;;;;;;;9.93;59.82;98432.53;4906820;28;97141;-49
2023/01/16 11:34:53;;;;;;;0.77;0.67;;;;;;;9.96;59.74;98427.97;4911363;28;96974;-50
2023/01/16 11:37:19;;;;;;;0.90;0.40;;;;;;;9.98;59.82;98419.94;4910585;28;96991;-49
2023/01/16 11:39:50;;;;;;;1.10;0.60;;;;;;;10.01;59.53;98407.84;4908290;28;97768;-48
2023/01/16 11:48:02;;;;;;;1.37;0.40;;;;;;;9.91;59.22;98363.69;4905774;28;97000;-49
2023/01/16 11:50:36;;;;;;;1.80;0.60;;;;;;;9.92;59.15;98359.66;4912414;28;97065;-49
2023/01/16 11:53:02;;;;;;;1.83;0.50;;;;;;;9.98;59.47;98356.75;4912838;28;96729;-50
2023/01/16 11:55:50;;;;;;;0.60;0.40;;;;;;;9.99;59.08;98349.97;4909953;28;96996;-49
2023/01/16 11:58:28;;;;;;;1.63;0.50;;;;;;;10.03;59.25;98342.09;4910020;28;96692;-49
2023/01/16 12:01:13;;;;;;;0.97;0.40;;;;;;;10.05;58.79;98336.81;4907297;28;99089;-49
2023/01/16 12:04:17;;;;;;;0.50;0.40;;;;;;;10.07;58.59;98326.75;4909519;28;96695;-49
2023/01/16 12:07:03;;;;;;;0.90;0.50;;;;;;;10.07;58.72;98318.50;4912577;28;96747;-50
2023/01/16 12:09:43;;;;;;;4.10;0.50;;;;;;;10.03;57.85;98314.66;4908035;28;96728;-49
2023/01/16 12:15:22;;;;;;;6.27;0.83;;;;;;;10.06;58.53;98297.09;4908338;28;96682;-49
2023/01/16 12:18:14;;;;;;;0.80;0.40;;;;;;;10.08;58.46;98294.53;4907768;28;97062;-49
2023/01/16 12:21:01;;;;;;;6.10;0.60;;;;;;;10.13;58.59;98286.16;4912872;28;97212;-49
2023/01/16 12:23:40;;;;;;;1.17;0.47;;;;;;;10.17;59.05;98275.53;4907235;28;96708;-48
2023/01/16 12:26:23;;;;;;;0.93;0.53;;;;;;;10.22;57.58;98254.66;4910567;28;96631;-51
2023/01/16 12:29:00;;;;;;;1.00;0.50;;;;;;;10.21;59.01;98256.69;4911260;28;97237;-48
2023/01/16 12:31:44;;;;;;;2.70;0.60;;;;;;;10.26;58.41;98255.78;4906005;28;97865;-50
2023/01/16 12:34:24;;;;;;;0.50;0.50;;;;;;;10.27;58.37;98242.75;4906480;28;97255;-49
2023/01/16 12:37:08;;;;;;;2.53;0.50;;;;;;;10.25;58.95;98242.56;4905201;28;96987;-49
2023/01/16 12:39:36;;;;;;;6.23;0.70;;;;;;;10.29;58.91;98242.94;4906915;28;96671;-48
2023/01/16 12:45:17;;;;;;;0.80;0.50;;;;;;;10.29;58.69;98224.44;4910389;28;96965;-49
2023/01/16 12:48:10;;;;;;;1.27;0.50;;;;;;;10.35;58.03;98218.78;4907406;28;97535;-50
2023/01/16 12:50:42;;;;;;;1.77;0.80;;;;;;;10.40;58.53;98215.09;4912076;28;96781;-51
2023/01/16 12:53:32;;;;;;;1.20;0.43;;;;;;;10.40;57.79;98210.34;4908302;28;97004;-50
2023/01/16 12:56:06;;;;;;;0.80;0.50;;;;;;;10.36;58.71;98198.25;4910330;28;97760;-50
2023/01/16 12:58:36;;;;;;;0.90;0.40;;;;;;;10.37;58.61;98205.94;4908779;28;97335;-49
2023/01/16 13:01:12;;;;;;;0.50;0.40;;;;;;;10.33;58.58;98193.88;4909408;28;96638;-49
2023/01/16 13:03:56;;;;;;;1.30;0.50;;;;;;;10.32;58.39;98184.13;4914132;28;97126;-50